createdAt,value
2019-03-08T00:01:00.434Z,9.43
2019-03-08T00:03:33.342Z,9.80
2019-03-08T00:06:04.944Z,8.50
2019-03-08T00:08:36.447Z,8.77
2019-03-08T00:11:08.454Z,9.00
2019-03-08T00:13:39.772Z,8.43
2019-03-08T00:16:12.307Z,8.90
2019-03-08T00:18:43.730Z,9.50
2019-03-08T00:21:15.260Z,9.90
2019-03-08T00:23:46.814Z,9.93
2019-03-08T00:26:18.169Z,9.90
2019-03-08T00:28:49.556Z,10.10
2019-03-08T00:31:21.027Z,10.53
2019-03-08T00:33:52.434Z,10.77
2019-03-08T00:36:23.814Z,11.70
2019-03-08T00:38:55.136Z,10.53
2019-03-08T00:41:26.668Z,11.00
2019-03-08T00:43:58.130Z,10.40
2019-03-08T00:46:32.870Z,10.10
2019-03-08T00:49:04.414Z,10.27
2019-03-08T00:51:35.944Z,10.17
2019-03-08T00:54:07.482Z,10.20
2019-03-08T00:56:39.739Z,9.33
2019-03-08T00:59:11.597Z,10.00
2019-03-08T01:01:43.178Z,9.00
2019-03-08T01:04:15.454Z,9.23
2019-03-08T01:06:47.160Z,8.90
2019-03-08T01:09:19.082Z,9.40
2019-03-08T01:11:50.607Z,8.73
2019-03-08T01:14:22.010Z,9.83
2019-03-08T01:16:53.532Z,9.60
2019-03-08T01:19:25.174Z,9.67
2019-03-08T01:21:57.030Z,9.30
2019-03-08T01:24:29.037Z,10.30
2019-03-08T01:27:00.523Z,9.70
2019-03-08T01:29:32.004Z,10.00
2019-03-08T01:32:05.381Z,10.17
2019-03-08T01:34:36.473Z,10.37
2019-03-08T01:37:07.972Z,10.13
2019-03-08T01:39:39.423Z,10.07
2019-03-08T01:42:10.841Z,9.67
2019-03-08T01:44:42.244Z,10.00
2019-03-08T01:47:13.629Z,9.70
2019-03-08T01:49:45.122Z,9.67
2019-03-08T01:52:16.621Z,9.37
2019-03-08T01:54:48.131Z,9.23
2019-03-08T01:57:19.922Z,8.23
2019-03-08T01:59:51.355Z,9.10
2019-03-08T02:02:22.822Z,8.77
2019-03-08T02:04:54.141Z,8.93
2019-03-08T02:07:25.934Z,8.00
2019-03-08T02:09:57.412Z,8.13
2019-03-08T02:12:28.739Z,8.13
2019-03-08T02:15:00.043Z,8.33
2019-03-08T02:17:31.521Z,8.40
2019-03-08T02:20:03.101Z,7.67
2019-03-08T02:22:34.445Z,7.77
2019-03-08T02:25:06.260Z,7.10
2019-03-08T02:27:47.249Z,6.60
2019-03-08T02:30:19.510Z,6.53
2019-03-08T02:32:51.560Z,7.00
2019-03-08T02:35:24.592Z,6.50
2019-03-08T02:37:56.416Z,5.93
2019-03-08T02:40:34.250Z,5.30
2019-03-08T02:43:17.343Z,5.43
2019-03-08T02:45:49.796Z,5.97
2019-03-08T02:48:22.279Z,5.50
2019-03-08T02:50:54.290Z,6.13
2019-03-08T02:53:26.128Z,5.70
2019-03-08T02:55:58.057Z,6.40
2019-03-08T02:58:30.043Z,5.23
2019-03-08T03:01:01.989Z,5.63
2019-03-08T03:03:34.581Z,5.87
2019-03-08T03:06:07.588Z,5.60
2019-03-08T03:08:39.368Z,5.60
2019-03-08T03:11:11.823Z,5.93
2019-03-08T03:13:43.960Z,5.87
2019-03-08T03:16:15.933Z,6.07
2019-03-08T03:18:47.782Z,5.70
2019-03-08T03:21:21.051Z,6.40
2019-03-08T03:23:53.028Z,5.33
2019-03-08T03:26:25.341Z,5.67
2019-03-08T03:28:57.111Z,5.80
2019-03-08T03:31:29.086Z,5.43
2019-03-08T03:34:01.005Z,5.33
2019-03-08T03:36:32.799Z,5.33
2019-03-08T03:39:05.272Z,5.03
2019-03-08T03:41:37.654Z,5.13
2019-03-08T03:44:09.640Z,5.60
2019-03-08T03:46:42.818Z,5.27
2019-03-08T03:49:14.987Z,5.47
2019-03-08T03:51:46.837Z,5.60
2019-03-08T03:54:18.820Z,5.20
2019-03-08T03:56:50.689Z,5.67
2019-03-08T03:59:22.566Z,5.57
2019-03-08T04:01:54.360Z,5.73
2019-03-08T04:04:26.282Z,5.93
2019-03-08T04:06:59.123Z,5.73
2019-03-08T04:09:30.684Z,5.93
2019-03-08T04:12:02.415Z,5.80
2019-03-08T04:14:35.191Z,6.00
2019-03-08T04:17:07.432Z,5.80
2019-03-08T04:19:39.474Z,6.43
2019-03-08T04:22:11.550Z,6.10
2019-03-08T04:24:43.796Z,6.07
2019-03-08T04:27:15.821Z,6.00
2019-03-08T04:29:47.798Z,5.80
2019-03-08T04:32:19.689Z,5.70
2019-03-08T04:34:51.530Z,6.83
2019-03-08T04:37:23.423Z,5.73
2019-03-08T04:39:55.589Z,5.67
2019-03-08T04:42:27.566Z,5.20
2019-03-08T04:44:59.561Z,6.13
2019-03-08T04:47:31.858Z,5.57
2019-03-08T04:50:04.054Z,5.37
2019-03-08T04:52:36.036Z,5.60
2019-03-08T04:55:10.120Z,5.37
2019-03-08T04:57:42.190Z,5.27
2019-03-08T05:00:15.269Z,5.60
2019-03-08T05:02:47.219Z,5.20
2019-03-08T05:05:19.214Z,5.20
2019-03-08T05:07:51.381Z,5.37
2019-03-08T05:10:23.469Z,5.40
2019-03-08T05:12:55.353Z,5.00
2019-03-08T05:15:28.144Z,4.57
2019-03-08T05:18:00.161Z,5.17
2019-03-08T05:20:32.073Z,4.93
2019-03-08T05:23:04.482Z,4.77
2019-03-08T05:25:36.406Z,4.73
2019-03-08T05:28:08.354Z,5.17
2019-03-08T05:30:40.336Z,4.63
2019-03-08T05:33:12.288Z,4.87
2019-03-08T05:35:44.403Z,5.07
2019-03-08T05:38:17.413Z,4.53
2019-03-08T05:40:49.250Z,4.67
2019-03-08T05:43:21.059Z,4.40
2019-03-08T05:45:53.199Z,4.50
2019-03-08T05:48:26.426Z,3.93
2019-03-08T05:50:59.681Z,3.73
2019-03-08T05:53:31.861Z,4.17
2019-03-08T05:56:03.690Z,3.73
2019-03-08T05:58:35.772Z,3.80
2019-03-08T06:01:07.800Z,3.87
2019-03-08T06:03:39.692Z,3.60
2019-03-08T06:06:11.542Z,3.37
2019-03-08T06:08:44.369Z,3.70
2019-03-08T06:11:16.321Z,3.00
2019-03-08T06:13:48.381Z,2.90
2019-03-08T06:16:20.449Z,3.20
2019-03-08T06:18:52.490Z,2.97
2019-03-08T06:21:24.871Z,3.40
2019-03-08T06:23:56.944Z,3.10
2019-03-08T06:26:29.170Z,3.20
2019-03-08T06:29:01.291Z,2.83
2019-03-08T06:31:33.453Z,3.10
2019-03-08T06:34:06.165Z,3.20
2019-03-08T06:36:38.291Z,3.03
2019-03-08T06:39:10.313Z,2.83
2019-03-08T06:41:42.285Z,2.47
2019-03-08T06:44:14.406Z,3.00
2019-03-08T06:46:46.340Z,2.73
2019-03-08T06:49:18.386Z,2.80
2019-03-08T06:51:51.679Z,2.90
2019-03-08T06:54:25.189Z,2.77
2019-03-08T06:56:57.604Z,3.07
2019-03-08T06:59:54.329Z,2.70
2019-03-08T07:02:26.842Z,3.30
2019-03-08T07:04:59.674Z,3.00
2019-03-08T07:07:31.997Z,2.43
2019-03-08T07:10:04.067Z,3.20
2019-03-08T07:12:36.375Z,2.70
2019-03-08T07:15:08.460Z,2.70
2019-03-08T07:17:40.750Z,3.17
2019-03-08T07:20:34.457Z,2.63
2019-03-08T07:23:13.816Z,2.43
2019-03-08T07:26:03.572Z,2.70
2019-03-08T07:28:54.539Z,2.60
2019-03-08T07:31:38.190Z,2.70
2019-03-08T07:34:34.902Z,2.40
2019-03-08T07:37:24.733Z,2.40
2019-03-08T07:40:15.770Z,2.70
2019-03-08T07:43:06.642Z,2.87
2019-03-08T07:46:06.871Z,2.30
2019-03-08T07:49:06.930Z,2.33
2019-03-08T07:51:58.260Z,2.47
2019-03-08T07:54:53.162Z,2.43
2019-03-08T07:57:50.121Z,2.13
2019-03-08T08:00:53.187Z,2.17
2019-03-08T08:03:50.189Z,2.67
2019-03-08T08:06:33.245Z,2.60
2019-03-08T08:09:26.342Z,2.83
2019-03-08T08:12:17.141Z,2.93
2019-03-08T08:15:00.824Z,2.60
2019-03-08T08:17:40.461Z,2.50
2019-03-08T08:20:35.342Z,2.70
2019-03-08T08:23:12.639Z,2.50
2019-03-08T08:26:22.000Z,2.17
2019-03-08T08:29:11.536Z,2.50
2019-03-08T08:31:54.895Z,2.60
2019-03-08T08:34:44.694Z,2.67
2019-03-08T08:37:33.476Z,2.50
2019-03-08T08:40:34.430Z,2.90
2019-03-08T08:43:15.906Z,2.80
2019-03-08T08:46:18.959Z,2.70
2019-03-08T08:49:02.117Z,2.80
2019-03-08T08:51:51.225Z,2.37
2019-03-08T08:54:31.600Z,2.23
2019-03-08T08:57:12.762Z,2.10
2019-03-08T09:00:03.387Z,2.33
2019-03-08T09:02:57.448Z,2.17
2019-03-08T09:05:43.631Z,2.50
2019-03-08T09:08:30.958Z,2.10
2019-03-08T09:11:45.866Z,2.17
2019-03-08T09:14:28.195Z,2.23
2019-03-08T09:17:05.609Z,2.00
2019-03-08T09:20:08.818Z,2.60
2019-03-08T09:22:56.503Z,2.00
2019-03-08T09:25:53.297Z,2.27
2019-03-08T09:28:53.168Z,2.13
2019-03-08T09:31:46.998Z,2.17
2019-03-08T09:34:36.997Z,2.07
2019-03-08T09:37:36.833Z,2.17
2019-03-08T09:40:37.694Z,2.10
2019-03-08T09:43:28.416Z,1.90
2019-03-08T09:46:19.335Z,2.47
2019-03-08T09:49:03.755Z,2.83
2019-03-08T09:51:57.537Z,1.90
2019-03-08T09:54:48.407Z,2.13
2019-03-08T09:57:42.586Z,2.10
2019-03-08T10:00:49.806Z,2.10
2019-03-08T10:03:49.350Z,2.60
2019-03-08T10:06:51.950Z,2.43
2019-03-08T10:09:45.646Z,2.47
2019-03-08T10:12:40.110Z,1.80
2019-03-08T10:15:31.437Z,2.20
2019-03-08T10:18:20.798Z,1.93
2019-03-08T10:21:14.344Z,1.93
2019-03-08T10:24:17.400Z,1.97
2019-03-08T10:27:11.330Z,1.80
2019-03-08T10:30:04.869Z,2.00
2019-03-08T10:32:56.039Z,1.73
2019-03-08T10:35:46.816Z,2.77
2019-03-08T10:38:23.213Z,2.00
2019-03-08T10:41:18.870Z,2.50
2019-03-08T10:43:56.410Z,1.77
2019-03-08T10:46:37.354Z,2.07
2019-03-08T10:49:20.442Z,2.30
2019-03-08T10:52:17.904Z,2.03
2019-03-08T10:55:00.541Z,1.70
2019-03-08T10:57:48.115Z,2.00
2019-03-08T11:00:24.954Z,1.70
2019-03-08T11:03:12.665Z,2.07
2019-03-08T11:05:52.360Z,1.80
2019-03-08T11:08:43.377Z,1.93
2019-03-08T11:11:28.640Z,1.90
2019-03-08T11:14:16.161Z,2.20
2019-03-08T11:17:04.559Z,1.73
2019-03-08T11:20:09.890Z,2.03
2019-03-08T11:23:09.559Z,1.80
2019-03-08T11:26:00.430Z,1.90
2019-03-08T11:28:55.963Z,2.00
2019-03-08T11:31:59.374Z,2.47
2019-03-08T11:34:38.794Z,2.10
2019-03-08T11:37:16.211Z,1.97
2019-03-08T11:39:56.518Z,2.40
2019-03-08T11:43:00.557Z,1.90
2019-03-08T11:45:43.550Z,2.03
2019-03-08T11:48:30.731Z,2.37
2019-03-08T11:51:20.091Z,1.70
2019-03-08T11:54:29.724Z,2.00
2019-03-08T11:57:25.694Z,2.13
2019-03-08T12:00:11.406Z,2.00
2019-03-08T12:03:05.665Z,2.07
2019-03-08T12:05:56.606Z,1.97
2019-03-08T12:08:50.639Z,2.13
2019-03-08T12:11:34.723Z,2.10
2019-03-08T12:14:38.446Z,2.10
2019-03-08T12:17:39.537Z,2.70
2019-03-08T12:20:49.185Z,1.77
2019-03-08T12:23:33.504Z,2.30
2019-03-08T12:26:30.142Z,1.80
2019-03-08T12:29:21.630Z,1.87
2019-03-08T12:32:09.039Z,2.30
2019-03-08T12:34:53.138Z,2.10
2019-03-08T12:37:43.884Z,1.70
2019-03-08T12:40:28.075Z,2.67
2019-03-08T12:43:21.801Z,2.20
2019-03-08T12:46:11.684Z,1.93
2019-03-08T12:49:02.259Z,1.70
2019-03-08T12:51:55.687Z,2.03
2019-03-08T12:54:34.390Z,2.00
2019-03-08T12:57:31.841Z,2.07
2019-03-08T13:00:28.709Z,2.50
2019-03-08T13:03:19.468Z,2.20
2019-03-08T13:06:07.831Z,2.47
2019-03-08T13:08:58.261Z,2.00
2019-03-08T13:11:33.189Z,1.80
2019-03-08T13:14:03.582Z,2.20
2019-03-08T13:16:35.680Z,2.00
2019-03-08T13:19:07.841Z,2.13
2019-03-08T13:21:39.894Z,2.40
2019-03-08T13:24:12.153Z,1.93
2019-03-08T13:26:44.285Z,2.50
2019-03-08T13:29:16.165Z,2.17
2019-03-08T13:31:48.141Z,2.47
2019-03-08T13:34:24.942Z,2.10
2019-03-08T13:36:57.298Z,3.27
2019-03-08T13:39:29.301Z,2.53
2019-03-08T13:42:01.314Z,2.47
2019-03-08T13:44:33.113Z,2.40
2019-03-08T13:47:05.254Z,1.93
2019-03-08T13:49:37.221Z,2.10
2019-03-08T13:52:09.167Z,2.00
2019-03-08T13:54:41.029Z,2.00
2019-03-08T13:57:13.004Z,2.63
2019-03-08T13:59:45.031Z,2.33
2019-03-08T14:02:17.293Z,2.40
2019-03-08T14:04:49.357Z,2.20
2019-03-08T14:07:21.278Z,2.33
2019-03-08T14:09:53.395Z,2.17
2019-03-08T14:12:25.800Z,2.20
2019-03-08T14:14:57.680Z,2.00
2019-03-08T14:17:29.491Z,2.37
2019-03-08T14:20:01.822Z,2.37
2019-03-08T14:22:35.329Z,2.43
2019-03-08T14:25:07.217Z,2.10
2019-03-08T14:27:39.141Z,2.57
2019-03-08T14:30:12.788Z,1.97
2019-03-08T14:32:44.765Z,2.27
2019-03-08T14:35:16.853Z,2.20
2019-03-08T14:37:52.416Z,2.07
2019-03-08T14:40:43.140Z,2.20
2019-03-08T14:43:23.442Z,2.53
2019-03-08T14:46:17.255Z,2.37
2019-03-08T14:48:47.764Z,2.40
2019-03-08T14:51:19.627Z,2.30
2019-03-08T14:53:51.789Z,2.73
2019-03-08T14:56:23.856Z,3.90
2019-03-08T14:58:55.761Z,2.67
2019-03-08T15:01:27.775Z,2.27
2019-03-08T15:03:59.996Z,2.40
2019-03-08T15:06:31.833Z,2.30
2019-03-08T15:09:04.216Z,2.30
2019-03-08T15:11:36.604Z,2.40
2019-03-08T15:14:08.662Z,2.73
2019-03-08T15:16:40.638Z,2.50
2019-03-08T15:19:12.666Z,2.93
2019-03-08T15:21:48.683Z,3.13
2019-03-08T15:24:19.654Z,2.70
2019-03-08T15:26:51.747Z,2.90
2019-03-08T15:29:23.801Z,2.77
2019-03-08T15:31:55.854Z,2.60
2019-03-08T15:34:28.023Z,2.90
2019-03-08T15:37:00.343Z,2.73
2019-03-08T15:39:32.498Z,2.67
2019-03-08T15:42:04.568Z,2.57
2019-03-08T15:44:36.674Z,2.57
2019-03-08T15:47:13.638Z,2.43
2019-03-08T15:49:42.233Z,2.67
2019-03-08T15:52:14.293Z,2.53
2019-03-08T15:54:46.417Z,2.37
2019-03-08T15:57:18.488Z,2.60
2019-03-08T15:59:50.513Z,2.23
2019-03-08T16:02:22.480Z,2.33
2019-03-08T16:04:54.595Z,2.23
2019-03-08T16:07:27.280Z,2.23
2019-03-08T16:09:59.496Z,2.17
2019-03-08T16:12:31.362Z,2.13
2019-03-08T16:15:03.752Z,2.53
2019-03-08T16:17:36.687Z,2.80
2019-03-08T16:20:10.776Z,2.67
2019-03-08T16:22:43.003Z,2.40
2019-03-08T16:25:15.891Z,2.50
2019-03-08T16:27:47.723Z,2.80
2019-03-08T16:30:29.897Z,2.23
2019-03-08T16:33:32.267Z,2.50
2019-03-08T16:36:15.088Z,2.63
2019-03-08T16:38:56.472Z,2.67
2019-03-08T16:41:47.305Z,2.57
2019-03-08T16:44:50.191Z,3.07
2019-03-08T16:47:45.619Z,2.57
2019-03-08T16:50:43.905Z,3.37
2019-03-08T16:53:28.288Z,3.27
2019-03-08T16:56:25.598Z,2.50
2019-03-08T16:59:19.051Z,2.37
2019-03-08T17:02:12.797Z,2.80
2019-03-08T17:04:54.621Z,2.77
2019-03-08T17:07:54.893Z,2.73
2019-03-08T17:10:45.514Z,2.60
2019-03-08T17:13:54.338Z,2.83
2019-03-08T17:16:57.299Z,3.07
2019-03-08T17:19:46.573Z,3.20
2019-03-08T17:22:35.369Z,3.10
2019-03-08T17:25:20.086Z,2.87
2019-03-08T17:28:11.469Z,2.80
2019-03-08T17:31:05.246Z,3.47
2019-03-08T17:33:44.246Z,3.60
2019-03-08T17:36:34.891Z,3.30
2019-03-08T17:39:41.782Z,2.83
2019-03-08T17:42:38.690Z,2.30
2019-03-08T17:45:16.213Z,2.73
2019-03-08T17:48:19.110Z,2.93
2019-03-08T17:51:08.195Z,2.57
2019-03-08T17:53:57.102Z,2.70
2019-03-08T17:56:39.976Z,2.63
2019-03-08T17:59:19.886Z,3.60
2019-03-08T18:02:09.542Z,4.13
2019-03-08T18:05:18.730Z,4.23
2019-03-08T18:08:07.350Z,4.13
2019-03-08T18:11:03.993Z,4.17
2019-03-08T18:13:53.429Z,3.73
2019-03-08T18:16:41.529Z,3.20
2019-03-08T18:19:33.531Z,3.20
2019-03-08T18:22:39.425Z,3.40
2019-03-08T18:25:28.975Z,3.50
2019-03-08T18:28:25.773Z,3.00
2019-03-08T18:31:35.253Z,3.53
2019-03-08T18:34:14.126Z,3.30
2019-03-08T18:37:03.569Z,3.77
2019-03-08T18:40:00.065Z,4.07
2019-03-08T18:42:57.138Z,3.83
2019-03-08T18:45:57.635Z,4.00
2019-03-08T18:48:43.223Z,4.30
2019-03-08T18:51:34.140Z,4.70
2019-03-08T18:54:30.829Z,3.87
2019-03-08T18:57:33.529Z,3.57
2019-03-08T19:00:26.279Z,3.80
2019-03-08T19:03:18.544Z,4.07
2019-03-08T19:06:12.069Z,4.23
2019-03-08T19:09:01.451Z,4.80
2019-03-08T19:12:07.105Z,4.57
2019-03-08T19:14:55.870Z,4.77
2019-03-08T19:17:52.179Z,4.50
2019-03-08T19:20:48.990Z,4.43
2019-03-08T19:23:27.129Z,4.17
2019-03-08T19:26:30.178Z,4.97
2019-03-08T19:29:35.949Z,4.57
2019-03-08T19:32:17.790Z,5.03
2019-03-08T19:35:03.829Z,5.10
2019-03-08T19:37:54.490Z,5.00
2019-03-08T19:40:47.849Z,5.37
2019-03-08T19:43:38.769Z,5.30
2019-03-08T19:46:28.419Z,4.87
2019-03-08T19:49:18.090Z,4.93
2019-03-08T19:52:05.980Z,4.87
2019-03-08T19:55:06.460Z,5.13
2019-03-08T19:58:10.439Z,5.17
2019-03-08T20:01:12.869Z,5.03
2019-03-08T20:04:09.940Z,4.73
2019-03-08T20:06:59.630Z,4.90
2019-03-08T20:10:02.099Z,5.17
2019-03-08T20:12:55.669Z,5.83
2019-03-08T20:15:43.048Z,4.73
2019-03-08T20:18:42.959Z,4.93
2019-03-08T20:21:28.618Z,5.10
2019-03-08T20:24:20.180Z,5.00
2019-03-08T20:27:11.499Z,5.50
2019-03-08T20:30:03.623Z,5.20
2019-03-08T20:33:01.949Z,5.30
2019-03-08T20:36:10.830Z,5.17
2019-03-08T20:39:15.844Z,5.47
2019-03-08T20:42:05.458Z,5.63
2019-03-08T20:44:54.691Z,5.50
2019-03-08T20:47:29.733Z,5.67
2019-03-08T20:50:02.851Z,5.60
2019-03-08T20:52:42.199Z,5.27
2019-03-08T20:55:19.853Z,5.73
2019-03-08T20:57:53.191Z,5.87
2019-03-08T21:00:25.271Z,5.80
2019-03-08T21:02:57.409Z,6.23
2019-03-08T21:05:30.129Z,5.80
2019-03-08T21:08:01.960Z,5.90
2019-03-08T21:10:35.609Z,6.10
2019-03-08T21:13:07.468Z,6.13
2019-03-08T21:15:39.538Z,6.37
2019-03-08T21:18:11.509Z,6.33
2019-03-08T21:20:43.828Z,6.40
2019-03-08T21:23:15.908Z,6.40
2019-03-08T21:25:47.991Z,5.90
2019-03-08T21:28:19.908Z,5.90
2019-03-08T21:30:51.639Z,5.87
2019-03-08T21:33:23.497Z,6.43
2019-03-08T21:36:00.679Z,6.80
2019-03-08T21:38:42.208Z,5.90
2019-03-08T21:41:15.303Z,6.07
2019-03-08T21:43:47.554Z,6.03
2019-03-08T21:46:20.009Z,6.00
2019-03-08T21:48:52.998Z,6.27
2019-03-08T21:51:26.429Z,6.50
2019-03-08T21:53:58.939Z,5.80
2019-03-08T21:56:32.531Z,6.63
2019-03-08T21:59:05.049Z,5.97
2019-03-08T22:01:38.558Z,6.27
2019-03-08T22:04:17.099Z,6.03
2019-03-08T22:06:49.863Z,6.07
2019-03-08T22:09:49.750Z,5.73
2019-03-08T22:12:21.827Z,6.47
2019-03-08T22:14:56.407Z,6.57
2019-03-08T22:17:29.107Z,5.90
2019-03-08T22:20:02.380Z,6.87
2019-03-08T22:22:36.033Z,6.53
2019-03-08T22:25:09.912Z,6.50
2019-03-08T22:27:43.109Z,6.60
2019-03-08T22:30:16.353Z,6.47
2019-03-08T22:32:54.203Z,6.40
2019-03-08T22:35:32.574Z,6.47
2019-03-08T22:38:09.364Z,6.90
2019-03-08T22:40:42.563Z,6.60
2019-03-08T22:43:15.339Z,6.10
2019-03-08T22:45:50.541Z,6.60
2019-03-08T22:48:27.686Z,5.90
2019-03-08T22:51:01.081Z,6.13
2019-03-08T22:53:33.730Z,6.50
2019-03-08T22:56:06.762Z,6.70
2019-03-08T22:58:38.784Z,7.23
2019-03-08T23:01:21.343Z,6.97
2019-03-08T23:04:07.885Z,6.63
2019-03-08T23:06:49.001Z,7.00
2019-03-08T23:09:25.766Z,7.00
2019-03-08T23:11:58.530Z,7.60
2019-03-08T23:14:30.529Z,7.07
2019-03-08T23:17:02.418Z,7.33
2019-03-08T23:19:34.469Z,7.23
2019-03-08T23:22:06.571Z,6.80
2019-03-08T23:24:38.915Z,6.50
2019-03-08T23:27:39.159Z,6.90
2019-03-08T23:30:17.488Z,6.70
2019-03-08T23:32:52.397Z,7.03
2019-03-08T23:35:25.475Z,6.90
2019-03-08T23:37:57.838Z,6.47
2019-03-08T23:40:29.999Z,5.77
2019-03-08T23:43:02.188Z,6.60
2019-03-08T23:45:33.979Z,6.53
2019-03-08T23:48:05.840Z,5.90
2019-03-08T23:50:37.689Z,6.40
2019-03-08T23:53:09.927Z,6.53
2019-03-08T23:55:42.101Z,6.07
2019-03-08T23:58:14.141Z,6.07
